createdAt,value
2023-03-22T00:01:31.162Z,11.25
2023-03-22T00:06:31.883Z,10.70
2023-03-22T00:11:32.623Z,10.88
2023-03-22T00:16:34.748Z,10.57
2023-03-22T00:21:35.543Z,10.45
2023-03-22T00:26:36.243Z,10.70
2023-03-22T00:31:38.802Z,11.45
2023-03-22T00:36:39.474Z,12.75
2023-03-22T00:41:40.151Z,10.30
2023-03-22T00:46:42.147Z,11.40
2023-03-22T00:51:44.537Z,9.75
2023-03-22T00:56:46.235Z,10.35
2023-03-22T01:01:49.747Z,10.02
2023-03-22T01:06:50.647Z,9.85
2023-03-22T01:11:51.382Z,9.80
2023-03-22T01:16:54.907Z,8.50
2023-03-22T01:21:55.693Z,9.98
2023-03-22T01:26:56.781Z,9.75
2023-03-22T01:31:58.785Z,9.70
2023-03-22T01:36:59.640Z,10.57
2023-03-22T01:42:00.714Z,9.90
2023-03-22T01:47:02.965Z,9.35
2023-03-22T01:52:10.556Z,9.90
2023-03-22T01:57:37.570Z,9.63
2023-03-22T02:02:43.153Z,10.15
2023-03-22T02:07:55.473Z,9.65
2023-03-22T02:13:16.530Z,11.02
2023-03-22T02:18:39.938Z,10.23
2023-03-22T02:24:23.544Z,11.40
2023-03-22T02:29:33.955Z,10.98
2023-03-22T02:34:58.475Z,10.45
2023-03-22T02:40:06.674Z,10.25
2023-03-22T02:45:14.534Z,10.00
2023-03-22T02:50:21.543Z,10.43
2023-03-22T02:55:30.825Z,9.60
2023-03-22T03:00:32.903Z,9.30
2023-03-22T03:05:35.266Z,9.23
2023-03-22T03:10:38.671Z,8.93
2023-03-22T03:15:42.521Z,9.45
2023-03-22T03:20:53.086Z,9.13
2023-03-22T03:26:01.671Z,8.80
2023-03-22T03:31:11.952Z,7.40
2023-03-22T03:36:17.472Z,7.53
2023-03-22T03:41:23.640Z,8.32
2023-03-22T03:46:24.404Z,7.22
2023-03-22T03:51:26.942Z,7.15
2023-03-22T03:56:29.035Z,6.70
2023-03-22T04:01:30.964Z,7.05
2023-03-22T04:06:43.730Z,7.70
2023-03-22T04:11:51.467Z,7.50
2023-03-22T04:16:52.649Z,8.43
2023-03-22T04:21:55.437Z,8.43
2023-03-22T04:26:58.552Z,9.38
2023-03-22T04:32:03.125Z,9.65
2023-03-22T04:37:13.370Z,9.73
2023-03-22T04:42:31.701Z,9.32
2023-03-22T04:47:47.222Z,9.25
2023-03-22T04:52:48.038Z,8.52
2023-03-22T04:57:50.065Z,8.50
2023-03-22T05:02:51.047Z,7.60
2023-03-22T05:08:00.627Z,8.07
2023-03-22T05:13:02.733Z,7.57
2023-03-22T05:18:06.742Z,7.70
2023-03-22T05:23:09.868Z,8.68
2023-03-22T05:28:14.270Z,7.97
2023-03-22T05:33:21.804Z,7.45
2023-03-22T05:38:25.653Z,6.68
2023-03-22T05:43:32.771Z,5.95
2023-03-22T05:48:33.575Z,6.07
2023-03-22T05:53:34.860Z,6.00
2023-03-22T05:58:44.963Z,6.25
2023-03-22T06:03:49.890Z,5.55
2023-03-22T06:09:16.397Z,5.18
2023-03-22T06:14:19.522Z,5.88
2023-03-22T06:19:31.306Z,4.97
2023-03-22T06:24:35.259Z,5.68
2023-03-22T06:29:38.863Z,6.07
2023-03-22T06:34:41.030Z,5.55
2023-03-22T06:39:43.430Z,5.18
2023-03-22T06:44:46.050Z,4.40
2023-03-22T06:49:50.084Z,5.20
2023-03-22T06:54:58.482Z,4.78
2023-03-22T07:00:00.630Z,4.50
2023-03-22T07:05:01.853Z,4.68
2023-03-22T07:10:02.616Z,4.55
2023-03-22T07:15:06.290Z,5.38
2023-03-22T07:20:26.672Z,4.70
2023-03-22T07:25:27.444Z,4.93
2023-03-22T07:30:39.927Z,4.47
2023-03-22T07:35:41.281Z,5.13
2023-03-22T07:40:42.429Z,5.05
2023-03-22T07:45:45.265Z,5.88
2023-03-22T07:51:05.900Z,5.07
2023-03-22T07:56:07.869Z,5.32
2023-03-22T08:01:10.956Z,5.00
2023-03-22T08:06:33.938Z,5.68
2023-03-22T08:11:36.735Z,4.53
2023-03-22T08:16:39.409Z,4.10
2023-03-22T08:21:40.432Z,4.53
2023-03-22T08:26:49.767Z,3.78
2023-03-22T08:32:02.486Z,3.47
2023-03-22T08:37:05.572Z,3.25
2023-03-22T08:42:07.184Z,2.45
2023-03-22T08:47:11.804Z,2.47
2023-03-22T08:52:15.282Z,2.42
2023-03-22T08:57:39.010Z,2.70
2023-03-22T09:02:57.618Z,2.38
2023-03-22T09:08:06.044Z,2.30
2023-03-22T09:13:15.075Z,2.10
2023-03-22T09:18:25.177Z,1.85
2023-03-22T09:23:27.487Z,1.38
2023-03-22T09:28:28.375Z,1.25
2023-03-22T09:33:33.557Z,1.20
2023-03-22T09:38:35.758Z,1.30
2023-03-22T09:43:40.929Z,1.35
2023-03-22T09:48:49.571Z,1.35
2023-03-22T09:53:50.413Z,1.20
2023-03-22T09:58:56.592Z,1.38
2023-03-22T10:04:26.330Z,1.38
2023-03-22T10:09:36.361Z,0.77
2023-03-22T10:14:40.912Z,0.98
2023-03-22T10:19:54.382Z,1.73
2023-03-22T10:24:56.501Z,0.80
2023-03-22T10:30:02.403Z,0.80
2023-03-22T10:35:04.608Z,1.02
2023-03-22T10:40:07.796Z,1.08
2023-03-22T10:45:13.167Z,1.00
2023-03-22T10:50:21.525Z,1.10
2023-03-22T10:55:22.521Z,1.00
2023-03-22T11:00:24.468Z,1.25
2023-03-22T11:05:28.823Z,1.00
2023-03-22T11:10:32.692Z,1.23
2023-03-22T11:15:35.784Z,0.75
2023-03-22T11:20:42.084Z,0.93
2023-03-22T11:25:47.983Z,0.88
2023-03-22T11:31:01.547Z,0.70
2023-03-22T11:36:06.115Z,0.90
2023-03-22T11:41:09.983Z,0.70
2023-03-22T11:46:12.325Z,0.90
2023-03-22T11:51:19.793Z,0.88
2023-03-22T11:56:27.156Z,0.88
2023-03-22T12:01:41.244Z,0.77
2023-03-22T12:06:44.507Z,0.90
2023-03-22T12:11:47.849Z,0.70
2023-03-22T12:16:51.712Z,0.90
2023-03-22T12:21:53.900Z,0.75
2023-03-22T12:27:01.541Z,0.70
2023-03-22T12:32:07.173Z,0.70
2023-03-22T12:37:15.989Z,0.70
2023-03-22T12:42:23.832Z,0.70
2023-03-22T12:47:28.569Z,0.90
2023-03-22T12:52:44.697Z,1.15
2023-03-22T12:57:51.347Z,0.73
2023-03-22T13:03:01.229Z,0.98
2023-03-22T13:08:05.718Z,0.90
2023-03-22T13:13:18.660Z,0.80
2023-03-22T13:18:40.808Z,0.80
2023-03-22T13:24:00.636Z,0.90
2023-03-22T13:29:08.020Z,0.90
2023-03-22T13:34:15.630Z,0.63
2023-03-22T13:39:18.612Z,0.95
2023-03-22T13:44:29.570Z,0.68
2023-03-22T13:49:46.110Z,2.33
2023-03-22T13:54:52.354Z,0.70
2023-03-22T14:00:12.056Z,1.00
2023-03-22T14:05:17.772Z,0.80
2023-03-22T14:10:23.664Z,0.85
2023-03-22T14:15:27.558Z,1.50
2023-03-22T14:20:33.046Z,0.90
